createdAt,value
2023-04-26T00:00:24.629Z,21.33
2023-04-26T00:02:51.167Z,21.32
2023-04-26T00:05:19.677Z,21.31
2023-04-26T00:07:46.579Z,21.30
2023-04-26T00:10:12.921Z,21.30
2023-04-26T00:12:41.121Z,21.29
2023-04-26T00:15:07.690Z,21.28
2023-04-26T00:17:34.113Z,21.28
2023-04-26T00:20:00.501Z,21.27
2023-04-26T00:22:26.918Z,21.25
2023-04-26T00:24:53.320Z,21.24
2023-04-26T00:27:19.671Z,21.23
2023-04-26T00:29:46.024Z,21.23
2023-04-26T00:32:12.524Z,21.22
2023-04-26T00:34:38.956Z,21.24
2023-04-26T00:37:05.326Z,21.22
2023-04-26T00:39:31.707Z,21.21
2023-04-26T00:41:58.052Z,21.20
2023-04-26T00:44:24.394Z,21.20
2023-04-26T00:46:51.707Z,21.20
2023-04-26T00:49:18.859Z,21.20
2023-04-26T00:51:45.254Z,21.19
2023-04-26T00:54:12.237Z,21.20
2023-04-26T00:56:38.566Z,21.17
2023-04-26T00:59:04.922Z,21.17
2023-04-26T01:01:31.281Z,21.17
2023-04-26T01:03:57.820Z,21.15
2023-04-26T01:06:24.402Z,21.14
2023-04-26T01:08:51.729Z,21.13
2023-04-26T01:11:19.757Z,21.11
2023-04-26T01:13:46.283Z,21.10
2023-04-26T01:16:12.667Z,21.10
2023-04-26T01:18:39.960Z,21.10
2023-04-26T01:21:06.310Z,21.10
2023-04-26T01:23:32.679Z,21.09
2023-04-26T01:25:59.036Z,21.08
2023-04-26T01:28:25.698Z,21.07
2023-04-26T01:30:52.079Z,21.07
2023-04-26T01:33:18.450Z,21.07
2023-04-26T01:35:44.781Z,21.07
2023-04-26T01:38:11.162Z,21.06
2023-04-26T01:40:37.735Z,21.06
2023-04-26T01:43:06.369Z,21.07
2023-04-26T01:45:32.749Z,21.10
2023-04-26T01:48:17.620Z,21.11
2023-04-26T01:50:43.954Z,21.11
2023-04-26T01:53:12.830Z,21.12
2023-04-26T01:55:39.176Z,21.14
2023-04-26T01:58:05.560Z,21.14
2023-04-26T02:00:33.349Z,21.13
2023-04-26T02:02:59.801Z,21.15
2023-04-26T02:05:26.341Z,21.14
2023-04-26T02:07:52.703Z,21.12
2023-04-26T02:10:19.054Z,21.13
2023-04-26T02:12:45.421Z,21.11
2023-04-26T02:15:11.768Z,21.10
2023-04-26T02:17:38.582Z,21.10
2023-04-26T02:20:05.012Z,21.10
2023-04-26T02:22:31.591Z,21.09
2023-04-26T02:24:58.488Z,21.08
2023-04-26T02:27:27.825Z,21.07
2023-04-26T02:29:54.379Z,21.07
2023-04-26T02:32:20.743Z,21.06
2023-04-26T02:34:47.113Z,21.06
2023-04-26T02:37:13.729Z,21.04
2023-04-26T02:39:40.078Z,21.03
2023-04-26T02:42:10.280Z,21.01
2023-04-26T02:44:37.432Z,21.01
2023-04-26T02:47:03.991Z,21.02
2023-04-26T02:49:30.718Z,21.04
2023-04-26T02:51:57.069Z,21.08
2023-04-26T02:54:23.867Z,21.07
2023-04-26T02:56:51.167Z,21.08
2023-04-26T02:59:17.521Z,21.11
2023-04-26T03:01:43.884Z,21.12
2023-04-26T03:04:10.570Z,21.14
2023-04-26T03:06:37.664Z,21.14
2023-04-26T03:09:05.557Z,21.14
2023-04-26T03:11:32.099Z,21.14
2023-04-26T03:13:58.478Z,21.13
2023-04-26T03:16:24.868Z,21.15
2023-04-26T03:18:51.510Z,21.13
2023-04-26T03:21:18.113Z,21.13
2023-04-26T03:23:44.741Z,21.15
2023-04-26T03:26:11.126Z,21.16
2023-04-26T03:28:37.579Z,21.17
2023-04-26T03:31:03.996Z,21.18
2023-04-26T03:33:31.037Z,21.19
2023-04-26T03:35:57.502Z,21.18
2023-04-26T03:38:24.957Z,21.18
2023-04-26T03:40:51.430Z,21.17
2023-04-26T03:43:17.790Z,21.17
2023-04-26T03:45:46.524Z,21.18
2023-04-26T03:48:12.942Z,21.17
2023-04-26T03:50:39.527Z,21.17
2023-04-26T03:53:05.898Z,21.18
2023-04-26T03:55:32.276Z,21.17
2023-04-26T03:57:58.790Z,21.19
2023-04-26T04:00:25.426Z,21.20
2023-04-26T04:02:52.106Z,21.19
2023-04-26T04:05:23.981Z,21.19
2023-04-26T04:07:50.473Z,21.19
2023-04-26T04:10:17.166Z,21.19
2023-04-26T04:12:44.506Z,21.17
2023-04-26T04:15:11.065Z,21.17
2023-04-26T04:17:40.465Z,21.18
2023-04-26T04:20:07.429Z,21.18
2023-04-26T04:22:33.874Z,21.17
2023-04-26T04:25:00.567Z,21.18
2023-04-26T04:27:27.051Z,21.19
2023-04-26T04:29:56.365Z,21.19
2023-04-26T04:32:23.828Z,21.20
2023-04-26T04:34:53.848Z,21.21
2023-04-26T04:37:21.174Z,21.21
2023-04-26T04:39:47.583Z,21.20
2023-04-26T04:42:14.844Z,21.20
2023-04-26T04:44:41.513Z,21.19
2023-04-26T04:47:08.025Z,21.18
2023-04-26T04:49:34.369Z,21.18
2023-04-26T04:52:00.956Z,21.19
2023-04-26T04:54:27.357Z,21.20
2023-04-26T04:56:53.830Z,21.21
2023-04-26T04:59:20.389Z,21.21
2023-04-26T05:01:48.250Z,21.21
2023-04-26T05:04:15.572Z,21.22
2023-04-26T05:06:42.835Z,21.22
2023-04-26T05:09:10.304Z,21.22
2023-04-26T05:11:36.877Z,21.22
2023-04-26T05:14:04.536Z,21.20
2023-04-26T05:16:31.145Z,21.21
2023-04-26T05:18:59.407Z,21.20
2023-04-26T05:21:25.935Z,21.19
2023-04-26T05:23:52.662Z,21.21
2023-04-26T05:26:19.243Z,21.20
2023-04-26T05:28:55.939Z,21.21
2023-04-26T05:31:40.719Z,21.23
2023-04-26T05:34:12.397Z,21.23
2023-04-26T05:36:39.925Z,21.22
2023-04-26T05:39:07.583Z,21.22
2023-04-26T05:41:33.996Z,21.23
2023-04-26T05:44:00.433Z,21.22
2023-04-26T05:46:26.965Z,21.22
2023-04-26T05:48:53.423Z,21.21
2023-04-26T05:51:20.493Z,21.28
2023-04-26T05:53:46.853Z,20.63
2023-04-26T05:56:13.607Z,20.67
2023-04-26T05:58:40.068Z,21.00
2023-04-26T06:01:06.423Z,21.16
2023-04-26T06:03:34.108Z,21.26
2023-04-26T06:06:01.438Z,21.30
2023-04-26T06:08:28.621Z,21.38
2023-04-26T06:10:55.025Z,21.38
2023-04-26T06:13:21.401Z,21.39
2023-04-26T06:15:47.780Z,21.38
2023-04-26T06:18:14.910Z,21.37
2023-04-26T06:20:42.285Z,21.39
2023-04-26T06:23:09.562Z,21.41
2023-04-26T06:25:37.055Z,21.41
2023-04-26T06:28:03.866Z,21.42
2023-04-26T06:30:31.159Z,21.41
2023-04-26T06:33:00.133Z,21.39
2023-04-26T06:35:26.649Z,21.29
2023-04-26T06:37:53.132Z,21.34
2023-04-26T06:40:20.191Z,21.36
2023-04-26T06:42:46.611Z,21.36
2023-04-26T06:45:25.177Z,21.37
2023-04-26T06:47:52.092Z,21.38
2023-04-26T06:50:18.582Z,21.37
2023-04-26T06:52:44.933Z,21.40
2023-04-26T06:55:11.297Z,21.40
2023-04-26T06:57:37.665Z,21.41
2023-04-26T07:00:04.473Z,21.40
2023-04-26T07:02:30.920Z,21.42
2023-04-26T07:04:57.750Z,21.42
2023-04-26T07:07:24.226Z,21.42
2023-04-26T07:09:50.583Z,21.42
2023-04-26T07:12:16.936Z,21.44
2023-04-26T07:14:43.426Z,21.43
2023-04-26T07:17:10.220Z,21.32
2023-04-26T07:19:36.652Z,20.80
2023-04-26T07:22:03.436Z,20.95
2023-04-26T07:24:29.839Z,20.95
2023-04-26T07:26:56.234Z,21.12
2023-04-26T07:29:22.689Z,21.23
2023-04-26T07:31:49.019Z,21.25
2023-04-26T07:34:15.394Z,21.27
2023-04-26T07:36:41.753Z,21.29
2023-04-26T07:39:09.831Z,21.29
2023-04-26T07:41:36.273Z,21.29
2023-04-26T07:44:02.803Z,21.29
2023-04-26T07:46:29.172Z,21.30
2023-04-26T07:48:55.724Z,21.31
2023-04-26T07:51:22.096Z,21.30
2023-04-26T07:53:48.751Z,21.31
2023-04-26T07:56:15.456Z,21.30
2023-04-26T07:58:41.828Z,21.30
2023-04-26T08:01:08.736Z,21.28
2023-04-26T08:03:35.570Z,21.21
2023-04-26T08:06:02.387Z,21.03
2023-04-26T08:08:28.963Z,20.14
2023-04-26T08:10:55.707Z,20.05
2023-04-26T08:13:22.245Z,20.49
2023-04-26T08:15:48.687Z,20.77
2023-04-26T08:18:15.021Z,20.80
2023-04-26T08:20:41.371Z,20.91
2023-04-26T08:23:07.740Z,19.99
2023-04-26T08:25:34.875Z,20.30
2023-04-26T08:28:01.869Z,20.63
2023-04-26T08:30:28.215Z,20.80
2023-04-26T08:32:54.637Z,20.83
2023-04-26T08:35:22.243Z,20.87
2023-04-26T08:37:48.603Z,20.89
2023-04-26T08:40:15.126Z,20.93
2023-04-26T08:42:44.526Z,20.95
2023-04-26T08:45:13.549Z,20.97
2023-04-26T08:47:39.880Z,21.00
2023-04-26T08:50:06.480Z,21.01
2023-04-26T08:52:32.847Z,21.04
2023-04-26T08:54:59.646Z,21.06
2023-04-26T08:57:26.243Z,21.07
2023-04-26T08:59:56.125Z,21.09
2023-04-26T09:02:22.910Z,21.10
2023-04-26T09:04:49.820Z,21.11
2023-04-26T09:07:19.445Z,21.12
2023-04-26T09:09:46.541Z,21.10
2023-04-26T09:12:12.889Z,21.14
2023-04-26T09:14:39.242Z,21.12
2023-04-26T09:17:05.645Z,21.12
2023-04-26T09:19:38.338Z,21.10
2023-04-26T09:22:04.680Z,21.11
2023-04-26T09:24:47.288Z,21.10
2023-04-26T09:27:13.709Z,21.10
2023-04-26T09:29:40.065Z,21.12
2023-04-26T09:32:07.899Z,21.12
2023-04-26T09:34:43.944Z,21.12
2023-04-26T09:37:12.196Z,21.14
2023-04-26T09:39:40.270Z,21.17
2023-04-26T09:42:09.504Z,21.16
2023-04-26T09:44:35.983Z,21.16
2023-04-26T09:47:05.948Z,21.16
2023-04-26T09:49:46.659Z,21.17
2023-04-26T09:52:13.064Z,21.17
2023-04-26T09:54:40.754Z,21.16
2023-04-26T09:57:07.253Z,21.16
2023-04-26T09:59:40.425Z,21.17
2023-04-26T10:02:08.160Z,21.16
2023-04-26T10:04:34.529Z,21.16
2023-04-26T10:07:01.044Z,21.17
2023-04-26T10:09:27.547Z,21.17
2023-04-26T10:11:53.867Z,21.17
2023-04-26T10:14:20.195Z,21.16
2023-04-26T10:16:46.580Z,21.17
2023-04-26T10:19:12.926Z,21.19
2023-04-26T10:21:39.270Z,21.19
2023-04-26T10:24:05.903Z,21.20
2023-04-26T10:26:52.725Z,21.19
2023-04-26T10:29:19.796Z,21.20
2023-04-26T10:32:05.176Z,21.20
2023-04-26T10:34:32.034Z,21.19
2023-04-26T10:37:16.848Z,21.20
2023-04-26T10:39:43.594Z,21.20
2023-04-26T10:42:25.825Z,21.20
2023-04-26T10:44:56.459Z,21.18
2023-04-26T10:47:33.451Z,21.20
2023-04-26T10:50:09.773Z,21.20
2023-04-26T10:52:36.798Z,21.20
2023-04-26T10:55:03.156Z,21.20
2023-04-26T10:57:46.353Z,21.19
2023-04-26T11:00:17.147Z,21.19
2023-04-26T11:02:46.969Z,21.20
2023-04-26T11:05:32.091Z,21.20
2023-04-26T11:08:25.011Z,21.19
2023-04-26T11:10:52.376Z,21.18
2023-04-26T11:13:19.581Z,21.18
2023-04-26T11:15:46.453Z,21.17
2023-04-26T11:18:12.827Z,21.16
2023-04-26T11:20:39.177Z,21.16
2023-04-26T11:23:05.538Z,21.16
2023-04-26T11:25:31.916Z,21.15
2023-04-26T11:27:59.230Z,21.15
2023-04-26T11:30:25.720Z,21.13
2023-04-26T11:32:52.123Z,21.13
2023-04-26T11:35:18.507Z,21.14
2023-04-26T11:37:45.419Z,21.13
2023-04-26T11:40:11.919Z,21.14
2023-04-26T11:42:38.295Z,21.15
2023-04-26T11:45:07.072Z,21.15
2023-04-26T11:47:34.071Z,20.90
2023-04-26T11:51:26.811Z,20.97
2023-04-26T11:53:54.283Z,21.10
2023-04-26T11:56:21.747Z,21.21
2023-04-26T11:58:48.441Z,21.20
2023-04-26T12:01:21.762Z,21.27
2023-04-26T12:03:49.915Z,21.29
2023-04-26T12:06:16.391Z,21.27
2023-04-26T12:08:48.649Z,21.27
2023-04-26T12:11:16.249Z,21.29
2023-04-26T12:13:42.575Z,21.30
2023-04-26T12:16:22.368Z,21.18
2023-04-26T12:18:52.657Z,20.49
2023-04-26T12:21:19.324Z,20.21
2023-04-26T12:23:47.880Z,20.08
2023-04-26T12:26:14.259Z,20.13
2023-04-26T12:28:41.314Z,20.21
2023-04-26T12:31:08.217Z,20.29
2023-04-26T12:33:34.761Z,20.62
2023-04-26T12:36:07.982Z,20.75
2023-04-26T12:38:34.329Z,20.83
2023-04-26T12:41:01.292Z,20.87
2023-04-26T12:43:27.658Z,20.88
2023-04-26T12:45:54.064Z,20.93
2023-04-26T12:48:20.516Z,20.95
2023-04-26T12:50:46.895Z,20.93
2023-04-26T12:53:13.956Z,21.00
2023-04-26T12:55:40.301Z,21.06
2023-04-26T12:58:06.709Z,21.05
2023-04-26T13:00:33.041Z,21.03
2023-04-26T13:02:59.559Z,21.07
2023-04-26T13:05:26.055Z,20.92
2023-04-26T13:07:52.669Z,20.08
2023-04-26T13:10:19.067Z,19.78
2023-04-26T13:12:45.780Z,19.75
2023-04-26T13:15:12.152Z,19.80
2023-04-26T13:17:38.716Z,20.08
2023-04-26T13:20:06.201Z,20.34
2023-04-26T13:22:32.557Z,20.50
2023-04-26T13:24:58.976Z,20.62
2023-04-26T13:27:25.633Z,20.70
2023-04-26T13:29:52.373Z,20.74
2023-04-26T13:32:18.704Z,20.75
2023-04-26T13:34:47.809Z,20.77
2023-04-26T13:37:14.546Z,20.80
2023-04-26T13:39:40.919Z,20.81
2023-04-26T13:42:07.330Z,20.83
2023-04-26T13:44:33.955Z,20.83
2023-04-26T13:47:00.855Z,20.84
2023-04-26T13:49:27.354Z,20.86
2023-04-26T13:51:53.752Z,20.87
2023-04-26T13:54:21.966Z,20.88
2023-04-26T13:56:48.543Z,20.87
2023-04-26T13:59:14.990Z,20.88
2023-04-26T14:01:41.547Z,20.89
2023-04-26T14:04:11.279Z,20.88
2023-04-26T14:06:37.758Z,20.89
2023-04-26T14:09:06.924Z,20.89
2023-04-26T14:11:33.252Z,20.88
2023-04-26T14:13:59.597Z,20.88
2023-04-26T14:16:26.043Z,20.89
2023-04-26T14:18:52.456Z,20.89
2023-04-26T14:21:18.875Z,20.88
2023-04-26T14:23:45.239Z,20.90
2023-04-26T14:26:11.891Z,20.90
2023-04-26T14:28:38.501Z,20.91
2023-04-26T14:31:04.844Z,20.91
2023-04-26T14:33:31.508Z,20.90
2023-04-26T14:35:57.862Z,20.90
2023-04-26T14:38:24.231Z,20.91
2023-04-26T14:40:50.909Z,20.91
2023-04-26T14:43:17.262Z,20.92
2023-04-26T14:45:44.896Z,20.90
2023-04-26T14:48:12.412Z,20.93
2023-04-26T14:50:38.851Z,20.95
2023-04-26T14:53:05.227Z,20.95
2023-04-26T14:55:31.598Z,20.95
2023-04-26T14:57:57.955Z,20.95
2023-04-26T15:00:25.496Z,20.95
2023-04-26T15:02:51.973Z,20.94
2023-04-26T15:05:18.609Z,20.92
2023-04-26T15:07:44.933Z,20.92
2023-04-26T15:10:11.381Z,20.91
2023-04-26T15:12:37.733Z,20.91
2023-04-26T15:15:04.207Z,20.91
2023-04-26T15:17:31.742Z,20.91
2023-04-26T15:19:58.094Z,20.91
2023-04-26T15:22:24.451Z,20.91
2023-04-26T15:24:51.112Z,20.91
2023-04-26T15:27:17.750Z,20.90
2023-04-26T15:29:44.100Z,20.90
2023-04-26T15:32:10.777Z,20.91
2023-04-26T15:34:40.716Z,20.90
2023-04-26T15:37:07.302Z,20.90
2023-04-26T15:39:33.674Z,20.90
2023-04-26T15:42:00.032Z,20.89
2023-04-26T15:44:26.703Z,20.89
2023-04-26T15:46:53.050Z,20.89
2023-04-26T15:49:19.409Z,20.89
2023-04-26T15:51:45.808Z,20.89
2023-04-26T15:54:12.157Z,20.89
2023-04-26T15:56:38.476Z,20.89
2023-04-26T15:59:04.816Z,20.89
2023-04-26T16:01:31.235Z,20.88
2023-04-26T16:03:57.859Z,20.87
2023-04-26T16:06:24.342Z,20.87
2023-04-26T16:08:50.721Z,20.87
2023-04-26T16:11:17.088Z,20.87
2023-04-26T16:13:44.535Z,20.87
2023-04-26T16:16:11.494Z,20.87
2023-04-26T16:18:40.869Z,20.86
2023-04-26T16:21:08.161Z,20.86
2023-04-26T16:23:34.511Z,20.87
2023-04-26T16:26:01.404Z,20.89
2023-04-26T16:28:27.767Z,20.90
2023-04-26T16:30:54.166Z,20.91
2023-04-26T16:33:22.663Z,20.92
2023-04-26T16:35:49.951Z,20.93
2023-04-26T16:38:16.288Z,20.93
2023-04-26T16:40:42.637Z,20.96
2023-04-26T16:43:12.291Z,20.96
2023-04-26T16:45:38.857Z,20.96
2023-04-26T16:48:05.273Z,20.98
2023-04-26T16:50:31.654Z,21.02
2023-04-26T16:52:57.985Z,21.01
2023-04-26T16:55:24.418Z,21.04
2023-04-26T16:57:51.164Z,21.03
2023-04-26T17:00:17.627Z,21.04
2023-04-26T17:02:44.160Z,21.03
2023-04-26T17:05:10.905Z,21.05
2023-04-26T17:07:37.474Z,21.05
2023-04-26T17:10:03.890Z,21.05
2023-04-26T17:12:30.314Z,21.05
2023-04-26T17:14:56.755Z,21.08
2023-04-26T17:17:23.092Z,21.06
2023-04-26T17:19:49.427Z,21.05
2023-04-26T17:22:15.805Z,21.07
2023-04-26T17:24:42.146Z,21.07
2023-04-26T17:27:08.559Z,21.05
2023-04-26T17:29:34.993Z,21.01
2023-04-26T17:32:01.441Z,21.07
2023-04-26T17:34:27.794Z,21.03
2023-04-26T17:36:54.137Z,21.06
2023-04-26T17:39:20.502Z,21.06
2023-04-26T17:41:46.863Z,21.04
2023-04-26T17:44:13.210Z,21.04
2023-04-26T17:46:39.547Z,21.08
2023-04-26T17:49:07.172Z,21.05
2023-04-26T17:51:33.546Z,21.05
2023-04-26T17:53:59.904Z,20.98
2023-04-26T17:56:26.477Z,20.91
2023-04-26T17:58:52.848Z,20.99
2023-04-26T18:01:21.101Z,20.99
2023-04-26T18:03:47.669Z,20.97
2023-04-26T18:06:14.092Z,20.95
2023-04-26T18:08:41.032Z,20.94
2023-04-26T18:11:07.447Z,20.92
2023-04-26T18:13:33.804Z,20.93
2023-04-26T18:16:00.684Z,20.92
2023-04-26T18:18:27.997Z,20.84
2023-04-26T18:20:54.522Z,20.86
2023-04-26T18:23:21.567Z,20.93
2023-04-26T18:25:50.420Z,20.92
2023-04-26T18:28:16.768Z,20.89
2023-04-26T18:30:43.154Z,20.90
2023-04-26T18:33:09.542Z,20.88
2023-04-26T18:35:36.620Z,20.91
2023-04-26T18:38:03.769Z,20.95
2023-04-26T18:40:30.094Z,20.95
2023-04-26T18:42:56.528Z,20.96
2023-04-26T18:45:22.901Z,20.96
2023-04-26T18:47:49.261Z,20.99
2023-04-26T18:50:15.720Z,21.04
2023-04-26T18:52:42.080Z,21.04
2023-04-26T18:55:08.665Z,21.03
2023-04-26T18:57:35.013Z,21.04
2023-04-26T19:00:01.566Z,21.04
2023-04-26T19:02:27.968Z,21.05
2023-04-26T19:04:54.470Z,21.05
2023-04-26T19:07:20.944Z,21.05
2023-04-26T19:09:54.210Z,21.05
2023-04-26T19:12:21.149Z,21.04
2023-04-26T19:14:47.505Z,21.04
2023-04-26T19:17:13.831Z,21.04
2023-04-26T19:19:40.208Z,21.04
2023-04-26T19:22:06.573Z,21.03
2023-04-26T19:24:32.998Z,21.06
2023-04-26T19:26:59.369Z,21.06
2023-04-26T19:29:25.756Z,21.03
2023-04-26T19:31:52.255Z,21.05
2023-04-26T19:34:18.670Z,21.04
2023-04-26T19:36:45.001Z,21.05
2023-04-26T19:39:11.348Z,21.06
2023-04-26T19:41:37.692Z,21.06
2023-04-26T19:44:04.065Z,21.08
2023-04-26T19:46:30.875Z,21.09
2023-04-26T19:48:57.254Z,21.10
2023-04-26T19:51:23.609Z,21.07
2023-04-26T19:53:49.970Z,21.08
2023-04-26T19:56:16.544Z,21.10
2023-04-26T19:58:43.361Z,21.10
2023-04-26T20:01:09.776Z,21.07
2023-04-26T20:03:38.135Z,21.08
2023-04-26T20:06:04.699Z,21.09
2023-04-26T20:08:31.589Z,21.08
2023-04-26T20:11:01.445Z,21.09
2023-04-26T20:13:28.794Z,21.09
2023-04-26T20:15:55.142Z,21.09
2023-04-26T20:18:22.542Z,21.09
2023-04-26T20:20:49.282Z,21.09
2023-04-26T20:23:15.784Z,21.10
2023-04-26T20:25:42.118Z,21.11
2023-04-26T20:28:08.455Z,21.11
2023-04-26T20:30:34.800Z,21.12
2023-04-26T20:33:01.179Z,21.11
2023-04-26T20:35:27.597Z,21.12
2023-04-26T20:37:54.133Z,21.10
2023-04-26T20:40:20.473Z,21.11
2023-04-26T20:42:46.822Z,21.13
2023-04-26T20:45:13.294Z,21.11
2023-04-26T20:47:39.718Z,21.11
2023-04-26T20:50:06.283Z,21.12
2023-04-26T20:52:32.707Z,21.11
2023-04-26T20:54:59.061Z,21.10
2023-04-26T20:57:25.884Z,21.10
2023-04-26T20:59:52.235Z,21.10
2023-04-26T21:02:18.640Z,21.09
2023-04-26T21:04:45.296Z,21.09
2023-04-26T21:07:11.739Z,21.08
2023-04-26T21:09:38.062Z,21.07
2023-04-26T21:12:04.498Z,21.05
2023-04-26T21:14:31.101Z,21.06
2023-04-26T21:16:57.486Z,21.06
2023-04-26T21:19:24.199Z,21.05
2023-04-26T21:21:51.057Z,21.04
2023-04-26T21:24:17.561Z,21.04
2023-04-26T21:26:43.922Z,21.03
2023-04-26T21:29:12.245Z,21.04
2023-04-26T21:31:38.647Z,21.03
2023-04-26T21:34:05.033Z,21.01
2023-04-26T21:36:32.363Z,21.01
2023-04-26T21:38:58.698Z,21.00
2023-04-26T21:41:25.812Z,21.00
2023-04-26T21:43:55.949Z,21.00
2023-04-26T21:46:22.354Z,20.99
2023-04-26T21:48:48.721Z,20.98
2023-04-26T21:51:15.110Z,20.97
2023-04-26T21:53:41.444Z,20.97
2023-04-26T21:56:07.837Z,20.97
2023-04-26T21:58:34.331Z,20.97
2023-04-26T22:01:07.901Z,20.96
2023-04-26T22:03:34.461Z,20.93
2023-04-26T22:06:00.818Z,20.91
2023-04-26T22:08:27.157Z,20.91
2023-04-26T22:10:53.520Z,20.89
2023-04-26T22:13:19.873Z,20.89
2023-04-26T22:15:46.276Z,20.90
2023-04-26T22:18:12.616Z,20.89
2023-04-26T22:20:38.945Z,20.89
2023-04-26T22:23:05.335Z,20.89
2023-04-26T22:25:31.661Z,20.90
2023-04-26T22:27:58.047Z,20.89
2023-04-26T22:30:26.222Z,20.89
2023-04-26T22:32:54.492Z,20.86
2023-04-26T22:35:21.613Z,20.89
2023-04-26T22:37:48.028Z,20.88
2023-04-26T22:40:14.600Z,20.88
2023-04-26T22:42:40.992Z,20.87
2023-04-26T22:45:07.500Z,20.85
2023-04-26T22:47:33.896Z,20.86
2023-04-26T22:50:00.315Z,20.86
2023-04-26T22:52:31.606Z,20.85
2023-04-26T22:54:58.359Z,20.85
2023-04-26T22:57:24.727Z,20.84
2023-04-26T22:59:51.068Z,20.83
2023-04-26T23:02:18.256Z,20.83
2023-04-26T23:04:44.646Z,20.83
2023-04-26T23:07:11.092Z,20.81
2023-04-26T23:09:37.544Z,20.81
2023-04-26T23:12:04.370Z,20.79
2023-04-26T23:14:30.739Z,20.78
2023-04-26T23:16:59.781Z,20.78
2023-04-26T23:19:26.686Z,20.78
2023-04-26T23:21:53.033Z,20.78
2023-04-26T23:24:19.385Z,20.76
2023-04-26T23:26:45.745Z,20.76
2023-04-26T23:29:12.273Z,20.76
2023-04-26T23:31:38.766Z,20.76
2023-04-26T23:34:05.111Z,20.74
2023-04-26T23:36:33.404Z,20.75
2023-04-26T23:38:59.765Z,20.74
2023-04-26T23:41:26.284Z,20.74
2023-04-26T23:43:52.605Z,20.73
2023-04-26T23:46:19.037Z,20.72
2023-04-26T23:48:45.470Z,20.74
2023-04-26T23:51:11.883Z,20.72
2023-04-26T23:53:39.621Z,20.72
2023-04-26T23:56:06.533Z,20.72
2023-04-26T23:58:32.871Z,20.70
